Time,TemperatureF,DewpointF,PressureIn,WindDirection,WindDirectionDegrees,WindSpeedMPH,WindSpeedGustMPH,Humidity,HourlyPrecipIn,Conditions,Clouds,dailyrainin,SoftwareType,DateUTC
2013-08-10 00:13:00,72.9,72.6,29.67,South,180,1.1,-999.0,99,-99.99,,,0.00,Acu-Link.com,2013-08-10 04:13:00,
2013-08-10 00:28:00,72.9,72.6,29.67,West,270,1.7,-999.0,99,-99.99,,,0.00,Acu-Link.com,2013-08-10 04:28:00,
2013-08-10 00:43:00,72.9,72.6,29.66,SSW,202,0.0,-999.0,99,-99.99,,,0.00,Acu-Link.com,2013-08-10 04:43:00,
2013-08-10 00:58:00,72.7,72.4,29.66,South,180,3.2,-999.0,99,-99.99,,,0.00,Acu-Link.com,2013-08-10 04:58:00,
2013-08-10 01:13:00,72.7,72.4,29.67,WSW,247,1.1,-999.0,99,-99.99,,,0.00,Acu-Link.com,2013-08-10 05:13:00,
2013-08-10 01:29:00,72.1,71.8,29.67,ESE,112,0.0,-999.0,99,-99.99,,,0.00,Acu-Link.com,2013-08-10 05:29:00,
2013-08-10 01:44:00,72.0,71.4,29.67,North,0,2.2,-999.0,98,-99.99,,,0.00,Acu-Link.com,2013-08-10 05:44:00,
2013-08-10 01:59:00,72.1,71.2,29.67,NW,315,1.7,-999.0,97,-99.99,,,0.00,Acu-Link.com,2013-08-10 05:59:00,
2013-08-10 02:14:00,71.6,70.7,29.67,West,270,0.0,-999.0,97,-99.99,,,0.00,Acu-Link.com,2013-08-10 06:14:00,
2013-08-10 02:29:00,71.1,70.5,29.67,West,270,0.0,-999.0,98,-99.99,,,0.00,Acu-Link.com,2013-08-10 06:29:00,
2013-08-10 02:44:00,70.7,70.1,29.67,WSW,247,1.7,-999.0,98,-99.99,,,0.00,Acu-Link.com,2013-08-10 06:44:00,
2013-08-10 02:59:00,70.7,70.4,29.68,SSW,202,3.7,-999.0,99,-99.99,,,0.00,Acu-Link.com,2013-08-10 06:59:00,
2013-08-10 03:14:00,70.5,70.2,29.68,SW,225,0.0,-999.0,99,-99.99,,,0.00,Acu-Link.com,2013-08-10 07:14:00,
2013-08-10 03:29:00,70.2,69.9,29.69,South,180,2.7,-999.0,99,-99.99,,,0.00,Acu-Link.com,2013-08-10 07:29:00,
2013-08-10 03:45:00,70.0,69.7,29.69,South,180,1.1,-999.0,99,-99.99,,,0.00,Acu-Link.com,2013-08-10 07:45:00,
2013-08-10 04:00:00,69.6,69.3,29.70,West,270,1.1,-999.0,99,-99.99,,,0.00,Acu-Link.com,2013-08-10 08:00:00,
2013-08-10 04:16:00,69.6,69.3,29.69,West,270,1.7,-999.0,99,-99.99,,,0.00,Acu-Link.com,2013-08-10 08:16:00,
2013-08-10 04:32:00,69.4,69.1,29.70,WNW,292,3.2,-999.0,99,-99.99,,,0.00,Acu-Link.com,2013-08-10 08:32:00,
2013-08-10 04:47:00,69.4,69.1,29.70,SW,225,1.7,-999.0,99,-99.99,,,0.00,Acu-Link.com,2013-08-10 08:47:00,
2013-08-10 05:02:00,68.9,68.6,29.70,SSE,157,2.2,-999.0,99,-99.99,,,0.00,Acu-Link.com,2013-08-10 09:02:00,
2013-08-10 05:17:00,68.4,68.1,29.71,SW,225,1.7,-999.0,99,-99.99,,,0.00,Acu-Link.com,2013-08-10 09:17:00,
2013-08-10 05:32:00,68.0,67.7,29.72,ESE,112,1.1,-999.0,99,-99.99,,,0.00,Acu-Link.com,2013-08-10 09:32:00,
2013-08-10 05:47:00,67.3,66.7,29.73,SW,225,3.2,-999.0,98,-99.99,,,0.00,Acu-Link.com,2013-08-10 09:47:00,
2013-08-10 06:03:00,66.9,66.3,29.73,WNW,292,2.7,-999.0,98,-99.99,,,0.00,Acu-Link.com,2013-08-10 10:03:00,
2013-08-10 06:18:00,66.7,65.5,29.73,NNE,22,1.1,-999.0,96,-99.99,,,0.00,Acu-Link.com,2013-08-10 10:18:00,
2013-08-10 06:33:00,66.6,65.1,29.74,NNW,337,2.7,-999.0,95,-99.99,,,0.00,Acu-Link.com,2013-08-10 10:33:00,
2013-08-10 06:48:00,66.7,64.9,29.75,WNW,292,4.2,-999.0,94,-99.99,,,0.00,Acu-Link.com,2013-08-10 10:48:00,
2013-08-10 07:03:00,67.5,65.7,29.75,South,180,3.2,-999.0,94,-99.99,,,0.00,Acu-Link.com,2013-08-10 11:03:00,
2013-08-10 07:18:00,67.8,65.7,29.76,West,270,1.7,-999.0,93,-99.99,,,0.00,Acu-Link.com,2013-08-10 11:18:00,
2013-08-10 07:33:00,70.3,66.9,29.77,WNW,292,5.8,-999.0,89,-99.99,,,0.00,Acu-Link.com,2013-08-10 11:33:00,
2013-08-10 07:48:00,71.1,67.0,29.76,West,270,2.7,-999.0,87,-99.99,,,0.00,Acu-Link.com,2013-08-10 11:48:00,
2013-08-10 08:04:00,73.6,67.4,29.76,SW,225,4.2,-999.0,81,-99.99,,,0.00,Acu-Link.com,2013-08-10 12:04:00,
2013-08-10 08:19:00,72.9,67.1,29.77,NW,315,2.2,-999.0,82,-99.99,,,0.00,Acu-Link.com,2013-08-10 12:19:00,
2013-08-10 08:34:00,73.8,67.6,29.77,WNW,292,1.7,-999.0,81,-99.99,,,0.00,Acu-Link.com,2013-08-10 12:34:00,
2013-08-10 08:49:00,73.9,67.0,29.77,NW,315,2.2,-999.0,79,-99.99,,,0.00,Acu-Link.com,2013-08-10 12:49:00,
2013-08-10 09:04:00,74.8,66.3,29.77,WNW,292,4.2,-999.0,75,-99.99,,,0.00,Acu-Link.com,2013-08-10 13:04:00,
2013-08-10 09:19:00,75.2,65.9,29.78,NW,315,7.3,-999.0,73,-99.99,,,0.00,Acu-Link.com,2013-08-10 13:19:00,
2013-08-10 09:34:00,75.6,65.5,29.77,West,270,2.7,-999.0,71,-99.99,,,0.00,Acu-Link.com,2013-08-10 13:34:00,
2013-08-10 09:49:00,76.8,65.4,29.76,NW,315,4.2,-999.0,68,-99.99,,,0.00,Acu-Link.com,2013-08-10 13:49:00,
2013-08-10 10:04:00,77.2,64.9,29.77,SW,225,5.3,-999.0,66,-99.99,,,0.00,Acu-Link.com,2013-08-10 14:04:00,
2013-08-10 10:20:00,77.7,66.3,29.76,South,180,2.7,-999.0,68,-99.99,,,0.00,Acu-Link.com,2013-08-10 14:20:00,
2013-08-10 10:35:00,77.7,65.4,29.77,SW,225,4.7,-999.0,66,-99.99,,,0.00,Acu-Link.com,2013-08-10 14:35:00,
2013-08-10 10:50:00,78.8,66.5,29.76,West,270,2.7,-999.0,66,-99.99,,,0.00,Acu-Link.com,2013-08-10 14:50:00,
2013-08-10 11:05:00,80.2,66.0,29.76,NW,315,7.3,-999.0,62,-99.99,,,0.00,Acu-Link.com,2013-08-10 15:05:00,
2013-08-10 11:20:00,80.1,67.3,29.75,NW,315,2.7,-999.0,65,-99.99,,,0.00,Acu-Link.com,2013-08-10 15:20:00,
2013-08-10 11:35:00,81.5,66.3,29.75,SW,225,2.7,-999.0,60,-99.99,,,0.00,Acu-Link.com,2013-08-10 15:35:00,
2013-08-10 11:51:00,82.2,63.3,29.75,WSW,247,6.3,-999.0,53,-99.99,,,0.00,Acu-Link.com,2013-08-10 15:51:00,
2013-08-10 12:06:00,81.3,64.1,29.75,WNW,292,2.7,-999.0,56,-99.99,,,0.00,Acu-Link.com,2013-08-10 16:06:00,
2013-08-10 12:21:00,81.9,62.5,29.75,WNW,292,2.7,-999.0,52,-99.99,,,0.00,Acu-Link.com,2013-08-10 16:21:00,
2013-08-10 12:36:00,81.7,62.9,29.75,WNW,292,5.3,-999.0,53,-99.99,,,0.00,Acu-Link.com,2013-08-10 16:36:00,
2013-08-10 12:51:00,82.9,61.8,29.76,NW,315,6.3,-999.0,49,-99.99,,,0.00,Acu-Link.com,2013-08-10 16:51:00,
2013-08-10 13:06:00,82.9,62.9,29.76,NNW,337,3.7,-999.0,51,-99.99,,,0.00,Acu-Link.com,2013-08-10 17:06:00,
2013-08-10 13:21:00,82.6,63.2,29.75,WNW,292,6.8,-999.0,52,-99.99,,,0.00,Acu-Link.com,2013-08-10 17:21:00,
2013-08-10 13:36:00,81.1,62.3,29.75,WNW,292,6.8,-999.0,53,-99.99,,,0.00,Acu-Link.com,2013-08-10 17:36:00,
2013-08-10 13:51:00,83.7,64.7,29.75,NNE,22,4.2,-999.0,53,-99.99,,,0.00,Acu-Link.com,2013-08-10 17:51:00,
2013-08-10 14:07:00,83.8,63.7,29.75,West,270,6.3,-999.0,51,-99.99,,,0.00,Acu-Link.com,2013-08-10 18:07:00,
2013-08-10 14:22:00,82.0,63.7,29.75,SSE,157,1.7,-999.0,54,-99.99,,,0.00,Acu-Link.com,2013-08-10 18:22:00,
2013-08-10 14:37:00,84.4,64.3,29.75,NW,315,5.3,-999.0,51,-99.99,,,0.00,Acu-Link.com,2013-08-10 18:37:00,
2013-08-10 14:52:00,83.3,63.8,29.74,SW,225,3.7,-999.0,52,-99.99,,,0.00,Acu-Link.com,2013-08-10 18:52:00,
2013-08-10 15:07:00,82.4,63.0,29.75,WNW,292,3.7,-999.0,52,-99.99,,,0.00,Acu-Link.com,2013-08-10 19:07:00,
2013-08-10 15:22:00,83.8,63.1,29.73,SW,225,5.8,-999.0,50,-99.99,,,0.00,Acu-Link.com,2013-08-10 19:22:00,
2013-08-10 15:37:00,84.7,61.6,29.73,NE,45,4.7,-999.0,46,-99.99,,,0.00,Acu-Link.com,2013-08-10 19:37:00,
2013-08-10 15:52:00,84.7,61.6,29.74,NW,315,3.2,-999.0,46,-99.99,,,0.00,Acu-Link.com,2013-08-10 19:52:00,
2013-08-10 16:07:00,83.5,58.0,29.75,NNE,22,5.3,-999.0,42,-99.99,,,0.00,Acu-Link.com,2013-08-10 20:07:00,
2013-08-10 16:23:00,84.0,57.1,29.76,West,270,5.8,-999.0,40,-99.99,,,0.00,Acu-Link.com,2013-08-10 20:23:00,
2013-08-10 16:38:00,83.7,58.1,29.74,WSW,247,9.4,-999.0,42,-99.99,,,0.00,Acu-Link.com,2013-08-10 20:38:00,
2013-08-10 16:53:00,83.8,57.6,29.76,WNW,292,6.8,-999.0,41,-99.99,,,0.00,Acu-Link.com,2013-08-10 20:53:00,
2013-08-10 17:08:00,84.0,57.7,29.76,West,270,4.2,-999.0,41,-99.99,,,0.00,Acu-Link.com,2013-08-10 21:08:00,
2013-08-10 17:23:00,82.4,58.3,29.76,SE,135,1.7,-999.0,44,-99.99,,,0.00,Acu-Link.com,2013-08-10 21:23:00,
2013-08-10 17:38:00,82.2,58.1,29.76,WNW,292,4.7,-999.0,44,-99.99,,,0.00,Acu-Link.com,2013-08-10 21:38:00,
2013-08-10 17:53:00,82.8,57.3,29.76,West,270,4.2,-999.0,42,-99.99,,,0.00,Acu-Link.com,2013-08-10 21:53:00,
2013-08-10 18:08:00,82.4,57.6,29.76,WNW,292,3.7,-999.0,43,-99.99,,,0.00,Acu-Link.com,2013-08-10 22:08:00,
2013-08-10 18:23:00,82.9,56.8,29.78,WNW,292,2.7,-999.0,41,-99.99,,,0.00,Acu-Link.com,2013-08-10 22:23:00,
2013-08-10 18:38:00,81.7,57.0,29.78,NW,315,4.2,-999.0,43,-99.99,,,0.00,Acu-Link.com,2013-08-10 22:38:00,
2013-08-10 18:54:00,79.2,56.0,29.79,SW,225,2.2,-999.0,45,-99.99,,,0.00,Acu-Link.com,2013-08-10 22:54:00,
2013-08-10 19:09:00,76.5,54.8,29.79,WNW,292,5.8,-999.0,47,-99.99,,,0.00,Acu-Link.com,2013-08-10 23:09:00,
2013-08-10 19:24:00,74.7,55.4,29.80,WNW,292,1.7,-999.0,51,-99.99,,,0.00,Acu-Link.com,2013-08-10 23:24:00,
2013-08-10 19:39:00,73.6,55.9,29.80,NW,315,1.1,-999.0,54,-99.99,,,0.00,Acu-Link.com,2013-08-10 23:39:00,
2013-08-10 19:54:00,69.4,57.5,29.80,SSW,202,1.7,-999.0,66,-99.99,,,0.00,Acu-Link.com,2013-08-10 23:54:00,
2013-08-10 20:09:00,68.4,57.4,29.80,West,270,0.0,-999.0,68,-99.99,,,0.00,Acu-Link.com,2013-08-11 00:09:00,
2013-08-10 20:24:00,66.4,57.1,29.81,West,270,0.0,-999.0,72,-99.99,,,0.00,Acu-Link.com,2013-08-11 00:24:00,
2013-08-10 20:39:00,64.9,57.5,29.81,SW,225,0.0,-999.0,77,-99.99,,,0.00,Acu-Link.com,2013-08-11 00:39:00,
2013-08-10 20:54:00,63.7,57.1,29.83,West,270,0.0,-999.0,79,-99.99,,,0.00,Acu-Link.com,2013-08-11 00:54:00,
2013-08-10 21:10:00,62.6,56.3,29.83,South,180,0.0,-999.0,80,-99.99,,,0.00,Acu-Link.com,2013-08-11 01:10:00,
2013-08-10 21:25:00,61.9,56.0,29.85,SE,135,0.0,-999.0,81,-99.99,,,0.00,Acu-Link.com,2013-08-11 01:25:00,
2013-08-10 21:40:00,61.3,55.1,29.84,SE,135,0.0,-999.0,80,-99.99,,,0.00,Acu-Link.com,2013-08-11 01:40:00,
2013-08-10 21:55:00,61.3,55.1,29.85,WNW,292,0.0,-999.0,80,-99.99,,,0.00,Acu-Link.com,2013-08-11 01:55:00,
2013-08-10 22:10:00,61.0,54.8,29.85,SW,225,1.1,-999.0,80,-99.99,,,0.00,Acu-Link.com,2013-08-11 02:10:00,
2013-08-10 22:25:00,61.5,53.5,29.85,SW,225,1.1,-999.0,75,-99.99,,,0.00,Acu-Link.com,2013-08-11 02:25:00,
2013-08-10 22:41:00,61.3,54.0,29.86,South,180,0.0,-999.0,77,-99.99,,,0.00,Acu-Link.com,2013-08-11 02:41:00,
2013-08-10 22:56:00,60.6,54.7,29.86,SW,225,0.0,-999.0,81,-99.99,,,0.00,Acu-Link.com,2013-08-11 02:56:00,
2013-08-10 23:11:00,59.4,53.9,29.86,WSW,247,0.0,-999.0,82,-99.99,,,0.00,Acu-Link.com,2013-08-11 03:11:00,
2013-08-10 23:26:00,58.3,54.1,29.86,SW,225,0.0,-999.0,86,-99.99,,,0.00,Acu-Link.com,2013-08-11 03:26:00,
2013-08-10 23:42:00,57.4,53.6,29.86,WNW,292,0.0,-999.0,87,-99.99,,,0.00,Acu-Link.com,2013-08-11 03:42:00,